createdAt,value
2019-03-19T00:00:07.222Z,984.72
2019-03-19T00:01:07.136Z,984.74
2019-03-19T00:02:07.070Z,984.70
2019-03-19T00:03:06.968Z,984.68
2019-03-19T00:04:06.882Z,984.71
2019-03-19T00:05:06.800Z,984.69
2019-03-19T00:06:06.711Z,984.69
2019-03-19T00:07:06.625Z,984.67
2019-03-19T00:08:06.539Z,984.67
2019-03-19T00:09:06.454Z,984.66
2019-03-19T00:10:06.369Z,984.65
2019-03-19T00:11:06.282Z,984.64
2019-03-19T00:12:06.196Z,984.64
2019-03-19T00:13:06.115Z,984.64
2019-03-19T00:14:06.029Z,984.66
2019-03-19T00:15:05.944Z,984.65
2019-03-19T00:16:05.857Z,984.67
2019-03-19T00:17:05.772Z,984.63
2019-03-19T00:18:05.688Z,984.64
2019-03-19T00:19:05.602Z,984.62
2019-03-19T00:20:05.515Z,984.62
2019-03-19T00:21:05.431Z,984.63
2019-03-19T00:22:05.346Z,984.65
2019-03-19T00:23:05.258Z,984.62
2019-03-19T00:24:05.173Z,984.65
2019-03-19T00:25:05.083Z,984.67
2019-03-19T00:26:05.001Z,984.65
2019-03-19T00:27:04.917Z,984.67
2019-03-19T00:28:04.834Z,984.68
2019-03-19T00:29:04.746Z,984.71
2019-03-19T00:30:04.666Z,984.70
2019-03-19T00:31:04.575Z,984.69
2019-03-19T00:32:04.489Z,984.71
2019-03-19T00:33:04.407Z,984.74
2019-03-19T00:34:04.315Z,984.71
2019-03-19T00:35:04.225Z,984.69
2019-03-19T00:36:04.147Z,984.72
2019-03-19T00:37:04.068Z,984.71
2019-03-19T00:38:03.974Z,984.72
2019-03-19T00:39:03.890Z,984.71
2019-03-19T00:40:03.803Z,984.67
2019-03-19T00:41:03.719Z,984.71
2019-03-19T00:42:03.638Z,984.68
2019-03-19T00:43:03.552Z,984.68
2019-03-19T00:44:03.464Z,984.66
2019-03-19T00:45:03.375Z,984.66
2019-03-19T00:46:03.301Z,984.63
2019-03-19T00:47:03.203Z,984.64
2019-03-19T00:48:03.136Z,984.68
2019-03-19T00:49:03.032Z,984.65
2019-03-19T00:50:02.981Z,984.62
2019-03-19T00:51:02.864Z,984.60
2019-03-19T00:52:02.784Z,984.65
2019-03-19T00:53:02.688Z,984.61
2019-03-19T00:54:02.607Z,984.59
2019-03-19T00:55:02.525Z,984.63
2019-03-19T00:56:02.438Z,984.65
2019-03-19T00:57:02.350Z,984.65
2019-03-19T00:58:02.269Z,984.68
2019-03-19T00:59:02.180Z,984.64
2019-03-19T01:00:09.789Z,984.62
2019-03-19T01:02:06.390Z,984.59
2019-03-19T01:03:06.290Z,984.58
2019-03-19T01:05:10.581Z,984.53
2019-03-19T01:06:10.495Z,984.55
2019-03-19T01:08:14.780Z,984.55
2019-03-19T01:09:14.682Z,984.56
2019-03-19T01:11:07.897Z,984.58
2019-03-19T01:12:07.812Z,984.60
2019-03-19T01:14:12.100Z,984.60
2019-03-19T01:15:12.047Z,984.62
2019-03-19T01:17:15.801Z,984.58
2019-03-19T01:18:15.703Z,984.61
2019-03-19T01:20:19.983Z,984.59
2019-03-19T01:21:19.900Z,984.53
2019-03-19T01:22:19.809Z,984.55
2019-03-19T01:23:19.726Z,984.53
2019-03-19T01:24:19.639Z,984.55
2019-03-19T01:25:19.556Z,984.54
2019-03-19T01:26:19.472Z,984.56
2019-03-19T01:27:19.384Z,984.56
2019-03-19T01:28:19.296Z,984.59
2019-03-19T01:29:19.210Z,984.55
2019-03-19T01:30:19.132Z,984.58
2019-03-19T01:31:19.042Z,984.58
2019-03-19T01:32:18.955Z,984.61
2019-03-19T01:33:18.868Z,984.57
2019-03-19T01:34:18.784Z,984.57
2019-03-19T01:35:18.700Z,984.58
2019-03-19T01:36:18.613Z,984.60
2019-03-19T01:37:18.524Z,984.60
2019-03-19T01:38:18.440Z,984.59
2019-03-19T01:39:18.352Z,984.59
2019-03-19T01:40:18.271Z,984.59
2019-03-19T01:41:18.185Z,984.58
2019-03-19T01:42:18.096Z,984.59
2019-03-19T01:43:18.009Z,984.59
2019-03-19T01:44:17.927Z,984.59
2019-03-19T01:45:17.840Z,984.57
2019-03-19T01:46:17.757Z,984.60
2019-03-19T01:47:17.669Z,984.56
2019-03-19T01:48:17.579Z,984.60
2019-03-19T01:49:17.489Z,984.57
2019-03-19T01:50:17.406Z,984.60
2019-03-19T01:51:17.325Z,984.62
2019-03-19T01:52:17.237Z,984.66
2019-03-19T01:53:17.151Z,984.65
2019-03-19T01:54:17.064Z,984.62
2019-03-19T01:55:16.978Z,984.68
2019-03-19T01:56:16.892Z,984.64
2019-03-19T01:57:16.808Z,984.66
2019-03-19T01:58:16.718Z,984.68
2019-03-19T01:59:16.635Z,984.69
2019-03-19T02:00:16.547Z,984.69
2019-03-19T02:01:16.459Z,984.72
2019-03-19T02:02:16.379Z,984.75
2019-03-19T02:03:16.290Z,984.77
2019-03-19T02:04:16.202Z,984.76
2019-03-19T02:05:16.121Z,984.79
2019-03-19T02:06:16.033Z,984.82
2019-03-19T02:07:15.945Z,984.77
2019-03-19T02:08:15.857Z,984.82
2019-03-19T02:09:15.772Z,984.84
2019-03-19T02:10:15.689Z,984.81
2019-03-19T02:11:15.597Z,984.83
2019-03-19T02:12:15.510Z,984.82
2019-03-19T02:13:15.426Z,984.85
2019-03-19T02:14:15.339Z,984.87
2019-03-19T02:15:15.258Z,984.86
2019-03-19T02:16:15.165Z,984.88
2019-03-19T02:17:15.109Z,984.85
2019-03-19T02:18:14.999Z,984.88
2019-03-19T02:19:14.905Z,984.89
2019-03-19T02:20:14.823Z,984.90
2019-03-19T02:21:14.737Z,984.92
2019-03-19T02:22:14.647Z,984.94
2019-03-19T02:23:14.565Z,984.97
2019-03-19T02:24:14.475Z,985.02
2019-03-19T02:25:14.391Z,985.03
2019-03-19T02:26:16.883Z,984.98
2019-03-19T02:27:14.215Z,984.96
2019-03-19T02:28:14.130Z,985.00
2019-03-19T02:29:14.057Z,984.94
2019-03-19T02:30:13.962Z,984.94
2019-03-19T02:31:13.873Z,984.90
2019-03-19T02:32:13.783Z,984.91
2019-03-19T02:33:13.697Z,984.91
2019-03-19T02:34:13.607Z,984.93
2019-03-19T02:35:13.522Z,984.95
2019-03-19T02:36:13.456Z,984.94
2019-03-19T02:37:13.341Z,984.96
2019-03-19T02:38:13.312Z,984.93
2019-03-19T02:39:13.173Z,984.98
2019-03-19T02:40:13.107Z,984.99
2019-03-19T02:41:13.001Z,984.98
2019-03-19T02:42:12.913Z,985.02
2019-03-19T02:43:12.826Z,985.04
2019-03-19T02:44:12.739Z,985.03
2019-03-19T02:45:12.653Z,985.01
2019-03-19T02:46:12.562Z,985.00
2019-03-19T02:47:12.476Z,985.00
2019-03-19T02:48:12.390Z,985.03
2019-03-19T02:49:12.311Z,985.01
2019-03-19T02:50:12.225Z,985.05
2019-03-19T02:51:12.127Z,985.05
2019-03-19T02:52:12.044Z,985.04
2019-03-19T02:53:11.957Z,985.05
2019-03-19T02:54:11.868Z,985.06
2019-03-19T02:55:11.789Z,985.07
2019-03-19T02:56:11.696Z,985.05
2019-03-19T02:57:11.607Z,985.07
2019-03-19T02:58:11.517Z,985.05
2019-03-19T02:59:11.434Z,985.08
2019-03-19T03:00:11.338Z,985.08
2019-03-19T03:01:11.263Z,985.09
2019-03-19T03:02:11.175Z,985.09
2019-03-19T03:03:11.162Z,985.14
2019-03-19T03:04:10.999Z,985.13
2019-03-19T03:05:10.917Z,985.16
2019-03-19T03:06:10.819Z,985.15
2019-03-19T03:07:10.735Z,985.16
2019-03-19T03:08:10.651Z,985.12
2019-03-19T03:09:10.570Z,985.14
2019-03-19T03:10:10.480Z,985.13
2019-03-19T03:11:10.394Z,985.17
2019-03-19T03:12:10.351Z,985.13
2019-03-19T03:13:10.213Z,985.15
2019-03-19T03:14:10.123Z,985.11
2019-03-19T03:15:10.045Z,985.11
2019-03-19T03:16:09.951Z,985.16
2019-03-19T03:17:09.865Z,985.14
2019-03-19T03:18:09.778Z,985.15
2019-03-19T03:19:09.690Z,985.19
2019-03-19T03:20:09.610Z,985.19
2019-03-19T03:21:09.520Z,985.21
2019-03-19T03:22:09.428Z,985.18
2019-03-19T03:23:09.343Z,985.19
2019-03-19T03:24:09.274Z,985.21
2019-03-19T03:25:09.170Z,985.17
2019-03-19T03:26:09.099Z,985.19
2019-03-19T03:27:09.002Z,985.23
2019-03-19T03:28:08.908Z,985.23
2019-03-19T03:29:08.818Z,985.25
2019-03-19T03:30:08.735Z,985.32
2019-03-19T03:31:08.671Z,985.27
2019-03-19T03:32:08.562Z,985.29
2019-03-19T03:33:08.474Z,985.23
2019-03-19T03:34:08.385Z,985.24
2019-03-19T03:35:08.348Z,985.24
2019-03-19T03:36:08.211Z,985.23
2019-03-19T03:37:08.126Z,985.24
2019-03-19T03:38:08.053Z,985.27
2019-03-19T03:39:07.948Z,985.30
2019-03-19T03:40:07.862Z,985.31
2019-03-19T03:41:07.771Z,985.32
2019-03-19T03:42:07.686Z,985.36
2019-03-19T03:43:07.608Z,985.35
2019-03-19T03:44:07.515Z,985.33
2019-03-19T03:45:07.430Z,985.37
2019-03-19T03:46:07.338Z,985.38
2019-03-19T03:47:07.256Z,985.40
2019-03-19T03:48:07.165Z,985.38
2019-03-19T03:49:07.083Z,985.37
2019-03-19T03:50:06.991Z,985.34
2019-03-19T03:51:06.906Z,985.36
2019-03-19T03:52:06.818Z,985.37
2019-03-19T03:53:06.730Z,985.38
2019-03-19T03:54:06.644Z,985.44
2019-03-19T03:55:06.563Z,985.42
2019-03-19T03:56:06.468Z,985.42
2019-03-19T03:57:06.381Z,985.46
2019-03-19T03:58:06.301Z,985.47
2019-03-19T03:59:06.323Z,985.48
2019-03-19T04:00:06.120Z,985.51
2019-03-19T04:01:06.037Z,985.46
2019-03-19T04:02:05.957Z,985.45
2019-03-19T04:03:05.858Z,985.50
2019-03-19T04:04:05.773Z,985.51
2019-03-19T04:05:05.688Z,985.51
2019-03-19T04:06:05.600Z,985.55
2019-03-19T04:07:05.509Z,985.53
2019-03-19T04:08:05.424Z,985.52
2019-03-19T04:09:08.889Z,985.50
2019-03-19T04:10:05.247Z,985.54
2019-03-19T04:11:05.164Z,985.49
2019-03-19T04:12:05.075Z,985.50
2019-03-19T04:13:04.994Z,985.50
2019-03-19T04:14:04.917Z,985.52
2019-03-19T04:15:04.833Z,985.51
2019-03-19T04:16:04.733Z,985.57
2019-03-19T04:17:04.644Z,985.61
2019-03-19T04:18:04.554Z,985.61
2019-03-19T04:19:04.465Z,985.66
2019-03-19T04:20:04.382Z,985.66
2019-03-19T04:21:04.296Z,985.66
2019-03-19T04:22:04.205Z,985.70
2019-03-19T04:23:04.142Z,985.67
2019-03-19T04:24:04.038Z,985.65
2019-03-19T04:25:03.948Z,985.64
2019-03-19T04:26:03.904Z,985.64
2019-03-19T04:27:15.403Z,985.61
2019-03-19T04:28:03.687Z,985.58
2019-03-19T04:29:03.599Z,985.64
2019-03-19T04:30:03.529Z,985.63
2019-03-19T04:31:03.427Z,985.64
2019-03-19T04:32:03.347Z,985.62
2019-03-19T04:33:03.251Z,985.65
2019-03-19T04:34:03.164Z,985.68
2019-03-19T04:35:03.080Z,985.69
2019-03-19T04:36:03.010Z,985.71
2019-03-19T04:37:02.901Z,985.70
2019-03-19T04:38:02.825Z,985.71
2019-03-19T04:39:02.738Z,985.71
2019-03-19T04:40:02.647Z,985.76
2019-03-19T04:41:02.553Z,985.79
2019-03-19T04:42:02.486Z,985.77
2019-03-19T04:43:02.382Z,985.76
2019-03-19T04:44:02.298Z,985.75
2019-03-19T04:45:02.210Z,985.76
2019-03-19T04:46:02.121Z,985.78
2019-03-19T04:47:02.035Z,985.80
2019-03-19T04:48:03.618Z,985.81
2019-03-19T04:49:01.862Z,985.79
2019-03-19T04:50:01.776Z,985.81
2019-03-19T04:51:01.687Z,985.83
2019-03-19T04:52:01.600Z,985.80
2019-03-19T04:53:01.514Z,985.84
2019-03-19T04:54:01.430Z,985.86
2019-03-19T04:55:01.347Z,985.88
2019-03-19T04:56:01.250Z,985.90
2019-03-19T04:57:01.168Z,985.92
2019-03-19T04:58:01.079Z,985.92
2019-03-19T04:59:00.991Z,985.98
2019-03-19T05:00:00.907Z,985.98
2019-03-19T05:01:00.816Z,985.98
2019-03-19T05:02:00.726Z,985.96
2019-03-19T05:03:00.641Z,985.99
2019-03-19T05:04:00.555Z,985.96
2019-03-19T05:05:00.467Z,986.02
2019-03-19T05:06:00.382Z,985.98
2019-03-19T05:07:00.292Z,986.00
2019-03-19T05:08:00.224Z,986.00
2019-03-19T05:09:00.119Z,985.98
2019-03-19T05:10:00.032Z,986.00
2019-03-19T05:10:59.943Z,985.97
2019-03-19T05:11:59.862Z,985.98
2019-03-19T05:13:00.817Z,986.01
2019-03-19T05:13:59.682Z,986.00
2019-03-19T05:14:59.596Z,986.03
2019-03-19T05:15:59.510Z,986.04
2019-03-19T05:16:59.415Z,986.03
2019-03-19T05:17:59.332Z,986.02
2019-03-19T05:18:59.246Z,986.04
2019-03-19T05:19:59.158Z,986.04
2019-03-19T05:20:59.071Z,986.04
2019-03-19T05:21:58.988Z,986.08
2019-03-19T05:22:58.893Z,986.03
2019-03-19T05:23:58.809Z,986.03
2019-03-19T05:24:58.722Z,986.04
2019-03-19T05:25:58.633Z,986.03
2019-03-19T05:26:58.546Z,986.04
2019-03-19T05:27:58.459Z,986.05
2019-03-19T05:28:58.370Z,986.09
2019-03-19T05:29:58.282Z,986.11
2019-03-19T05:30:58.196Z,986.16
2019-03-19T05:31:58.109Z,986.15
2019-03-19T05:32:58.021Z,986.22
2019-03-19T05:33:57.935Z,986.18
2019-03-19T05:34:57.851Z,986.18
2019-03-19T05:35:57.761Z,986.19
2019-03-19T05:36:57.672Z,986.21
2019-03-19T05:37:57.617Z,986.17
2019-03-19T05:38:57.499Z,986.18
2019-03-19T05:39:57.410Z,986.16
2019-03-19T05:40:57.324Z,986.19
2019-03-19T05:41:57.237Z,986.18
2019-03-19T05:42:57.153Z,986.17
2019-03-19T05:43:57.061Z,986.17
2019-03-19T05:44:56.974Z,986.19
2019-03-19T05:45:56.886Z,986.20
2019-03-19T05:46:56.799Z,986.26
2019-03-19T05:47:56.713Z,986.30
2019-03-19T05:48:56.630Z,986.36
2019-03-19T05:49:56.537Z,986.33
2019-03-19T05:50:56.451Z,986.36
2019-03-19T05:51:56.369Z,986.41
2019-03-19T05:52:56.277Z,986.43
2019-03-19T05:53:56.192Z,986.41
2019-03-19T05:54:56.103Z,986.43
2019-03-19T05:55:56.017Z,986.40
2019-03-19T05:56:55.926Z,986.42
2019-03-19T05:57:55.839Z,986.45
2019-03-19T05:58:55.773Z,986.48
2019-03-19T05:59:55.665Z,986.51
2019-03-19T06:00:55.581Z,986.49
2019-03-19T06:01:55.492Z,986.53
2019-03-19T06:02:55.404Z,986.52
2019-03-19T06:03:55.317Z,986.52
2019-03-19T06:04:55.233Z,986.53
2019-03-19T06:05:55.144Z,986.53
2019-03-19T06:06:55.056Z,986.56
2019-03-19T06:07:54.967Z,986.58
2019-03-19T06:08:54.882Z,986.56
2019-03-19T06:09:54.795Z,986.60
2019-03-19T06:10:54.712Z,986.60
2019-03-19T06:11:54.651Z,986.64
2019-03-19T06:12:54.534Z,986.63
2019-03-19T06:13:54.473Z,986.63
2019-03-19T06:14:54.360Z,986.62
2019-03-19T06:15:54.273Z,986.61
2019-03-19T06:16:54.187Z,986.60
2019-03-19T06:17:54.098Z,986.67
2019-03-19T06:18:54.011Z,986.70
2019-03-19T06:19:53.928Z,986.70
2019-03-19T06:20:53.836Z,986.74
2019-03-19T06:21:53.747Z,986.68
2019-03-19T06:22:53.663Z,986.72
2019-03-19T06:23:53.577Z,986.70
2019-03-19T06:24:53.494Z,986.77
2019-03-19T06:25:53.402Z,986.78
2019-03-19T06:26:53.319Z,986.83
2019-03-19T06:28:00.419Z,986.84
2019-03-19T06:28:53.150Z,986.87
2019-03-19T06:29:53.053Z,986.87
2019-03-19T06:30:52.967Z,986.80
2019-03-19T06:31:52.879Z,986.77
2019-03-19T06:32:52.791Z,986.75
2019-03-19T06:33:52.705Z,986.77
2019-03-19T06:34:52.615Z,986.81
2019-03-19T06:35:52.529Z,986.79
2019-03-19T06:36:52.445Z,986.82
2019-03-19T06:37:52.358Z,986.87
2019-03-19T06:38:52.270Z,986.90
2019-03-19T06:39:52.181Z,986.92
2019-03-19T06:40:52.093Z,986.91
2019-03-19T06:41:52.004Z,986.90
2019-03-19T06:42:51.923Z,986.95
2019-03-19T06:43:51.834Z,986.92
2019-03-19T06:44:51.752Z,986.96
2019-03-19T06:45:51.655Z,986.95
2019-03-19T06:46:51.577Z,986.94
2019-03-19T06:47:51.481Z,986.94
2019-03-19T06:48:51.398Z,986.98
2019-03-19T06:49:51.312Z,986.94
2019-03-19T06:50:51.221Z,986.93
2019-03-19T06:51:51.138Z,986.96
2019-03-19T06:52:51.052Z,986.96
2019-03-19T06:53:50.960Z,987.00
2019-03-19T06:54:50.875Z,987.00
2019-03-19T06:55:50.789Z,987.05
2019-03-19T06:56:50.703Z,987.05
2019-03-19T06:57:50.612Z,987.08
2019-03-19T06:58:50.529Z,987.07
2019-03-19T06:59:50.443Z,987.13
2019-03-19T07:00:59.008Z,987.08
2019-03-19T07:02:57.150Z,987.18
2019-03-19T07:03:57.047Z,987.14
2019-03-19T07:06:03.844Z,987.14
2019-03-19T07:07:03.752Z,987.16
2019-03-19T07:08:03.663Z,987.11
2019-03-19T07:09:03.580Z,987.14
2019-03-19T07:10:03.488Z,987.13
2019-03-19T07:11:03.400Z,987.11
2019-03-19T07:12:03.313Z,987.14
2019-03-19T07:13:03.226Z,987.12
2019-03-19T07:14:03.146Z,987.12
2019-03-19T07:15:03.053Z,987.17
2019-03-19T07:16:02.964Z,987.18
2019-03-19T07:17:02.880Z,987.17
2019-03-19T07:18:02.795Z,987.15
2019-03-19T07:19:02.709Z,987.14
2019-03-19T07:20:02.626Z,987.11
2019-03-19T07:21:02.535Z,987.11
2019-03-19T07:22:02.447Z,987.11
2019-03-19T07:23:02.359Z,987.12
2019-03-19T07:24:02.270Z,987.13
2019-03-19T07:25:02.184Z,987.19
2019-03-19T07:26:02.096Z,987.23
2019-03-19T07:27:02.013Z,987.23
2019-03-19T07:28:01.923Z,987.23
2019-03-19T07:29:01.838Z,987.26
2019-03-19T07:30:01.755Z,987.28
2019-03-19T07:31:01.664Z,987.27
2019-03-19T07:32:01.572Z,987.27
2019-03-19T07:33:01.490Z,987.31
2019-03-19T07:34:01.406Z,987.34
2019-03-19T07:35:01.318Z,987.34
2019-03-19T07:36:01.228Z,987.36
2019-03-19T07:37:01.142Z,987.32
2019-03-19T07:38:01.057Z,987.31
2019-03-19T07:39:00.970Z,987.31
2019-03-19T07:40:00.884Z,987.39
2019-03-19T07:41:00.794Z,987.35
2019-03-19T07:42:00.708Z,987.38
2019-03-19T07:43:00.624Z,987.39
2019-03-19T07:44:00.536Z,987.37
2019-03-19T07:45:00.453Z,987.38
2019-03-19T07:46:00.362Z,987.40
2019-03-19T07:47:00.278Z,987.45
2019-03-19T07:48:00.189Z,987.39
2019-03-19T07:49:00.105Z,987.41
2019-03-19T07:50:00.013Z,987.40
2019-03-19T07:50:59.929Z,987.39
2019-03-19T07:51:59.844Z,987.39
2019-03-19T07:52:59.757Z,987.38
2019-03-19T07:53:59.671Z,987.35
2019-03-19T07:54:59.581Z,987.39
2019-03-19T07:55:59.495Z,987.35
2019-03-19T07:56:59.429Z,987.36
2019-03-19T07:57:59.317Z,987.37
2019-03-19T07:58:59.240Z,987.35
2019-03-19T07:59:59.147Z,987.39
2019-03-19T08:00:59.067Z,987.41
2019-03-19T08:01:58.979Z,987.39
2019-03-19T08:02:58.902Z,987.40
2019-03-19T08:03:58.807Z,987.43
2019-03-19T08:04:58.722Z,987.45
2019-03-19T08:05:58.636Z,987.47
2019-03-19T08:06:58.548Z,987.47
2019-03-19T08:07:58.478Z,987.48
2019-03-19T08:08:58.379Z,987.48
2019-03-19T08:09:58.294Z,987.54
2019-03-19T08:10:58.212Z,987.53
2019-03-19T08:11:58.116Z,987.53
2019-03-19T08:12:58.027Z,987.54
2019-03-19T08:13:57.955Z,987.55
2019-03-19T08:14:57.858Z,987.59
2019-03-19T08:15:57.774Z,987.58
2019-03-19T08:16:57.686Z,987.59
2019-03-19T08:17:57.598Z,987.60
2019-03-19T08:18:57.514Z,987.59
2019-03-19T08:19:57.429Z,987.63
2019-03-19T08:20:57.343Z,987.61
2019-03-19T08:21:57.259Z,987.63
2019-03-19T08:22:57.169Z,987.62
2019-03-19T08:23:58.759Z,987.65
2019-03-19T08:24:56.999Z,987.64
2019-03-19T08:25:56.914Z,987.64
2019-03-19T08:26:56.826Z,987.66
2019-03-19T08:27:56.738Z,987.67
2019-03-19T08:28:56.655Z,987.69
2019-03-19T08:29:56.567Z,987.68
2019-03-19T08:30:56.483Z,987.69
2019-03-19T08:31:56.401Z,987.65
2019-03-19T08:32:56.312Z,987.66
2019-03-19T08:33:56.226Z,987.63
2019-03-19T08:34:56.142Z,987.59
2019-03-19T08:35:56.056Z,987.59
2019-03-19T08:36:55.966Z,987.60
2019-03-19T08:37:55.887Z,987.61
2019-03-19T08:38:55.798Z,987.66
2019-03-19T08:39:56.777Z,987.69
2019-03-19T08:40:55.625Z,987.66
2019-03-19T08:41:55.540Z,987.63
2019-03-19T08:42:55.457Z,987.63
2019-03-19T08:43:55.372Z,987.61
2019-03-19T08:44:55.286Z,987.62
2019-03-19T08:45:55.205Z,987.62
2019-03-19T08:46:55.117Z,987.61
2019-03-19T08:47:55.043Z,987.71
2019-03-19T08:48:54.947Z,987.66
2019-03-19T08:49:54.860Z,987.68
2019-03-19T08:50:54.772Z,987.72
2019-03-19T08:51:54.688Z,987.68
2019-03-19T08:52:55.564Z,987.70
2019-03-19T08:53:54.518Z,987.69
2019-03-19T08:54:54.434Z,987.69
2019-03-19T08:55:54.347Z,987.72
2019-03-19T08:56:54.260Z,987.76
2019-03-19T08:57:54.186Z,987.73
2019-03-19T08:58:54.094Z,987.73
2019-03-19T08:59:54.029Z,987.72
2019-03-19T09:00:53.921Z,987.76
2019-03-19T09:01:53.844Z,987.77
2019-03-19T09:02:53.768Z,987.74
2019-03-19T09:03:53.670Z,987.75
2019-03-19T09:04:53.584Z,987.76
2019-03-19T09:05:53.501Z,987.75
2019-03-19T09:06:53.415Z,987.77
2019-03-19T09:07:53.346Z,987.81
2019-03-19T09:08:53.245Z,987.82
2019-03-19T09:09:53.162Z,987.81
2019-03-19T09:10:53.073Z,987.81
2019-03-19T09:11:52.986Z,987.79
2019-03-19T09:12:52.911Z,987.84
2019-03-19T09:13:52.825Z,987.80
2019-03-19T09:14:52.740Z,987.85
2019-03-19T09:15:52.653Z,987.81
2019-03-19T09:16:52.578Z,987.80
2019-03-19T09:17:52.486Z,987.84
2019-03-19T09:18:52.404Z,987.83
2019-03-19T09:19:52.315Z,987.84
2019-03-19T09:20:54.052Z,987.85
2019-03-19T09:21:52.150Z,987.86
2019-03-19T09:22:52.070Z,987.86
2019-03-19T09:23:51.978Z,987.84
2019-03-19T09:24:51.893Z,987.90
2019-03-19T09:25:51.810Z,987.93
2019-03-19T09:26:51.724Z,987.95
2019-03-19T09:27:51.654Z,987.94
2019-03-19T09:28:51.555Z,987.96
2019-03-19T09:29:51.475Z,988.00
2019-03-19T09:30:51.388Z,987.96
2019-03-19T09:31:51.303Z,987.96
2019-03-19T09:32:51.224Z,987.96
2019-03-19T09:33:51.137Z,987.95
2019-03-19T09:34:51.055Z,987.91
2019-03-19T09:35:50.973Z,987.86
2019-03-19T09:36:57.224Z,987.91
2019-03-19T09:37:58.233Z,987.91
2019-03-19T09:38:50.718Z,987.88
2019-03-19T09:39:50.632Z,987.88
2019-03-19T09:40:50.554Z,987.88
2019-03-19T09:41:50.468Z,987.88
2019-03-19T09:42:50.383Z,987.91
2019-03-19T09:43:50.296Z,987.92
2019-03-19T09:44:58.254Z,987.90
2019-03-19T09:45:50.130Z,987.92
2019-03-19T09:46:50.043Z,987.92
2019-03-19T09:47:49.965Z,987.89
2019-03-19T09:48:49.879Z,987.91
2019-03-19T09:49:49.790Z,987.96
2019-03-19T09:50:49.714Z,987.97
2019-03-19T09:51:49.627Z,987.94
2019-03-19T09:52:49.546Z,987.97
2019-03-19T09:53:49.459Z,987.95
2019-03-19T09:54:49.376Z,987.94
2019-03-19T09:55:49.288Z,987.94
2019-03-19T09:56:49.209Z,987.96
2019-03-19T09:57:49.156Z,987.95
2019-03-19T09:58:49.038Z,987.96
2019-03-19T09:59:48.962Z,987.95
2019-03-19T10:00:48.872Z,987.98
2019-03-19T10:01:48.790Z,987.96
2019-03-19T10:02:48.705Z,987.95
2019-03-19T10:03:48.616Z,987.99
2019-03-19T10:04:48.532Z,987.99
2019-03-19T10:05:48.454Z,988.01
2019-03-19T10:06:48.380Z,987.98
2019-03-19T10:07:48.282Z,987.95
2019-03-19T10:08:48.198Z,987.96
2019-03-19T10:09:48.117Z,987.94
2019-03-19T10:10:48.030Z,987.97
2019-03-19T10:11:47.949Z,987.99
2019-03-19T10:12:47.866Z,987.99
2019-03-19T10:13:47.776Z,988.01
2019-03-19T10:14:47.693Z,988.03
2019-03-19T10:15:47.610Z,988.05
2019-03-19T10:16:47.526Z,988.05
2019-03-19T10:17:47.442Z,988.06
2019-03-19T10:18:47.361Z,988.05
2019-03-19T10:19:47.277Z,988.04
2019-03-19T10:20:47.191Z,988.04
2019-03-19T10:21:47.106Z,988.06
2019-03-19T10:22:47.028Z,988.08
2019-03-19T10:23:46.935Z,988.08
2019-03-19T10:24:46.952Z,988.06
2019-03-19T10:25:46.771Z,988.06
2019-03-19T10:26:46.686Z,988.05
2019-03-19T10:27:46.596Z,988.06
2019-03-19T10:28:46.514Z,988.07
2019-03-19T10:29:46.433Z,988.09
2019-03-19T10:30:46.343Z,988.07
2019-03-19T10:31:46.262Z,988.08
2019-03-19T10:32:46.178Z,988.11
2019-03-19T10:33:46.090Z,988.13
2019-03-19T10:34:46.011Z,988.12
2019-03-19T10:35:45.923Z,988.08
2019-03-19T10:36:45.850Z,988.08
2019-03-19T10:37:45.759Z,988.08
2019-03-19T10:38:45.671Z,988.12
2019-03-19T10:39:45.588Z,988.14
2019-03-19T10:40:45.508Z,988.15
2019-03-19T10:41:45.443Z,988.20
2019-03-19T10:42:45.339Z,988.16
2019-03-19T10:43:45.257Z,988.18
2019-03-19T10:44:45.170Z,988.19
2019-03-19T10:45:45.087Z,988.18
2019-03-19T10:46:45.007Z,988.21
2019-03-19T10:47:44.922Z,988.18
2019-03-19T10:48:44.836Z,988.23
2019-03-19T10:49:44.752Z,988.19
2019-03-19T10:50:44.671Z,988.17
2019-03-19T10:51:44.609Z,988.18
2019-03-19T10:52:44.506Z,988.20
2019-03-19T10:53:44.421Z,988.22
2019-03-19T10:54:44.335Z,988.17
2019-03-19T10:55:44.251Z,988.18
2019-03-19T10:56:44.168Z,988.18
2019-03-19T10:57:44.084Z,988.16
2019-03-19T10:58:43.998Z,988.20
2019-03-19T10:59:49.074Z,988.19
2019-03-19T11:00:43.834Z,988.17
2019-03-19T11:01:43.769Z,988.13
2019-03-19T11:02:43.667Z,988.15
2019-03-19T11:03:43.584Z,988.12
2019-03-19T11:04:43.511Z,988.11
2019-03-19T11:05:43.419Z,988.11
2019-03-19T11:06:43.335Z,988.13
2019-03-19T11:07:43.248Z,988.16
2019-03-19T11:08:43.168Z,988.13
2019-03-19T11:09:43.085Z,988.15
2019-03-19T11:10:42.999Z,988.19
2019-03-19T11:11:42.932Z,988.19
2019-03-19T11:12:42.832Z,988.20
2019-03-19T11:13:42.751Z,988.22
2019-03-19T11:14:42.667Z,988.22
2019-03-19T11:15:42.582Z,988.21
2019-03-19T11:16:42.499Z,988.18
2019-03-19T11:17:42.420Z,988.21
2019-03-19T11:18:42.337Z,988.15
2019-03-19T11:19:42.242Z,988.14
2019-03-19T11:20:42.161Z,988.15
2019-03-19T11:21:42.078Z,988.15
2019-03-19T11:22:41.998Z,988.16
2019-03-19T11:23:41.910Z,988.17
2019-03-19T11:24:41.827Z,988.21
2019-03-19T11:25:41.744Z,988.17
2019-03-19T11:26:41.661Z,988.20
2019-03-19T11:27:41.576Z,988.18
2019-03-19T11:28:41.489Z,988.19
2019-03-19T11:29:41.407Z,988.17
2019-03-19T11:30:41.326Z,988.19
2019-03-19T11:31:41.244Z,988.20
2019-03-19T11:32:41.158Z,988.25
2019-03-19T11:33:41.073Z,988.25
2019-03-19T11:34:40.990Z,988.24
2019-03-19T11:35:40.904Z,988.23
2019-03-19T11:36:40.822Z,988.21
2019-03-19T11:37:40.789Z,988.26
2019-03-19T11:38:40.655Z,988.29
2019-03-19T11:39:40.574Z,988.23
2019-03-19T11:40:40.491Z,988.24
2019-03-19T11:41:40.409Z,988.27
2019-03-19T11:42:40.324Z,988.21
2019-03-19T11:43:40.245Z,988.30
2019-03-19T11:44:40.161Z,988.28
2019-03-19T11:45:40.080Z,988.40
2019-03-19T11:46:39.999Z,988.39
2019-03-19T11:47:39.916Z,988.44
2019-03-19T11:48:39.837Z,988.29
2019-03-19T11:49:39.756Z,988.25
2019-03-19T11:50:39.679Z,988.24
2019-03-19T11:51:39.608Z,988.19
2019-03-19T11:52:40.249Z,988.19
2019-03-19T11:53:39.459Z,988.18
2019-03-19T11:54:39.372Z,988.19
2019-03-19T11:55:39.288Z,988.12
2019-03-19T11:56:39.210Z,988.19
2019-03-19T11:57:39.140Z,988.15
2019-03-19T11:58:39.057Z,988.14
2019-03-19T11:59:38.976Z,988.19
2019-03-19T12:00:38.905Z,988.24
2019-03-19T12:01:38.823Z,988.23
2019-03-19T12:02:38.752Z,988.20
2019-03-19T12:03:38.660Z,988.21
2019-03-19T12:04:38.577Z,988.17
2019-03-19T12:05:38.499Z,988.16
2019-03-19T12:06:38.421Z,988.13
2019-03-19T12:07:38.337Z,988.15
2019-03-19T12:08:38.254Z,988.12
2019-03-19T12:09:40.036Z,988.10
2019-03-19T12:10:38.104Z,988.10
2019-03-19T12:11:38.017Z,988.11
2019-03-19T12:12:37.935Z,988.09
2019-03-19T12:13:37.856Z,988.14
2019-03-19T12:14:37.774Z,988.10
2019-03-19T12:15:37.751Z,988.12
2019-03-19T12:16:37.614Z,988.12
2019-03-19T12:17:37.556Z,988.12
2019-03-19T12:18:37.445Z,988.17
2019-03-19T12:19:37.363Z,988.19
2019-03-19T12:20:37.292Z,988.19
2019-03-19T12:21:37.201Z,988.20
2019-03-19T12:22:37.121Z,988.19
2019-03-19T12:23:37.039Z,988.14
2019-03-19T12:24:36.959Z,988.16
2019-03-19T12:25:36.873Z,988.15
2019-03-19T12:26:36.790Z,988.12
2019-03-19T12:27:36.708Z,988.10
2019-03-19T12:28:39.918Z,988.13
2019-03-19T12:29:36.544Z,988.11
2019-03-19T12:30:36.461Z,988.09
2019-03-19T12:31:36.376Z,988.07
2019-03-19T12:32:36.294Z,988.06
2019-03-19T12:33:40.816Z,988.09
2019-03-19T12:34:36.126Z,988.03
2019-03-19T12:35:36.047Z,988.07
2019-03-19T12:36:35.965Z,988.20